sensor_id;sensor_type;location;lat;lon;timestamp;temperature;humidity
14682;DHT22;7429;52.498;13.480;2023-05-10T00:00:16;12.40;99.90
14682;DHT22;7429;52.498;13.480;2023-05-10T00:03:19;12.40;99.90
14682;DHT22;7429;52.498;13.480;2023-05-10T00:06:23;12.40;99.90
14682;DHT22;7429;52.498;13.480;2023-05-10T00:09:26;12.30;99.90
14682;DHT22;7429;52.498;13.480;2023-05-10T00:12:29;12.30;99.90
14682;DHT22;7429;52.498;13.480;2023-05-10T00:15:34;12.30;99.90
14682;DHT22;7429;52.498;13.480;2023-05-10T00:18:37;12.30;99.90
14682;DHT22;7429;52.498;13.480;2023-05-10T00:21:40;12.20;99.90
14682;DHT22;7429;52.498;13.480;2023-05-10T00:24:43;12.10;99.90
14682;DHT22;7429;52.498;13.480;2023-05-10T00:27:46;12.10;99.90
14682;DHT22;7429;52.498;13.480;2023-05-10T00:30:51;12.10;99.90
14682;DHT22;7429;52.498;13.480;2023-05-10T00:33:54;12.00;99.90
14682;DHT22;7429;52.498;13.480;2023-05-10T00:36:58;11.90;99.90
14682;DHT22;7429;52.498;13.480;2023-05-10T00:40:01;11.90;99.90
14682;DHT22;7429;52.498;13.480;2023-05-10T00:43:04;11.80;99.90
14682;DHT22;7429;52.498;13.480;2023-05-10T00:46:09;11.80;99.90
14682;DHT22;7429;52.498;13.480;2023-05-10T00:49:12;11.70;99.90
14682;DHT22;7429;52.498;13.480;2023-05-10T00:52:16;11.60;99.90
14682;DHT22;7429;52.498;13.480;2023-05-10T00:55:19;11.60;99.90
14682;DHT22;7429;52.498;13.480;2023-05-10T00:58:23;11.50;99.90
14682;DHT22;7429;52.498;13.480;2023-05-10T01:01:31;11.50;99.90
14682;DHT22;7429;52.498;13.480;2023-05-10T01:04:35;11.40;99.90
14682;DHT22;7429;52.498;13.480;2023-05-10T01:07:39;11.40;99.90
14682;DHT22;7429;52.498;13.480;2023-05-10T01:10:44;11.30;99.90
14682;DHT22;7429;52.498;13.480;2023-05-10T01:13:52;11.20;99.90
14682;DHT22;7429;52.498;13.480;2023-05-10T01:17:00;11.10;99.90
14682;DHT22;7429;52.498;13.480;2023-05-10T01:20:05;11.10;99.90
14682;DHT22;7429;52.498;13.480;2023-05-10T01:23:29;11.00;99.90
14682;DHT22;7429;52.498;13.480;2023-05-10T01:30:35;10.90;99.90
14682;DHT22;7429;52.498;13.480;2023-05-10T01:33:59;10.90;99.90
14682;DHT22;7429;52.498;13.480;2023-05-10T01:37:09;10.80;99.90
14682;DHT22;7429;52.498;13.480;2023-05-10T01:40:19;10.80;99.90
14682;DHT22;7429;52.498;13.480;2023-05-10T01:43:30;10.70;99.90
14682;DHT22;7429;52.498;13.480;2023-05-10T01:46:37;10.70;99.90
14682;DHT22;7429;52.498;13.480;2023-05-10T01:49:45;10.70;99.90
14682;DHT22;7429;52.498;13.480;2023-05-10T01:52:53;10.60;99.90
14682;DHT22;7429;52.498;13.480;2023-05-10T01:55:59;10.60;99.90
14682;DHT22;7429;52.498;13.480;2023-05-10T01:59:06;10.60;99.90
14682;DHT22;7429;52.498;13.480;2023-05-10T02:02:12;10.50;99.90
14682;DHT22;7429;52.498;13.480;2023-05-10T02:05:21;10.50;99.90
14682;DHT22;7429;52.498;13.480;2023-05-10T02:08:26;10.50;99.90
14682;DHT22;7429;52.498;13.480;2023-05-10T02:11:31;10.50;99.90
14682;DHT22;7429;52.498;13.480;2023-05-10T02:14:36;10.50;99.90
14682;DHT22;7429;52.498;13.480;2023-05-10T02:17:41;10.50;99.90
14682;DHT22;7429;52.498;13.480;2023-05-10T02:20:46;10.40;99.90
14682;DHT22;7429;52.498;13.480;2023-05-10T02:23:51;10.40;99.90
14682;DHT22;7429;52.498;13.480;2023-05-10T02:26:55;10.40;99.90
14682;DHT22;7429;52.498;13.480;2023-05-10T02:29:59;10.40;99.90
14682;DHT22;7429;52.498;13.480;2023-05-10T02:33:04;10.40;99.90
14682;DHT22;7429;52.498;13.480;2023-05-10T02:36:09;10.40;99.90
14682;DHT22;7429;52.498;13.480;2023-05-10T02:39:13;10.30;99.90
14682;DHT22;7429;52.498;13.480;2023-05-10T02:42:18;10.30;99.90
14682;DHT22;7429;52.498;13.480;2023-05-10T02:45:25;10.30;99.90
14682;DHT22;7429;52.498;13.480;2023-05-10T02:48:31;10.20;99.90
14682;DHT22;7429;52.498;13.480;2023-05-10T02:51:40;10.20;99.90
14682;DHT22;7429;52.498;13.480;2023-05-10T02:54:48;10.30;99.90
14682;DHT22;7429;52.498;13.480;2023-05-10T02:57:57;10.20;99.90
14682;DHT22;7429;52.498;13.480;2023-05-10T03:01:02;10.20;99.90
14682;DHT22;7429;52.498;13.480;2023-05-10T03:04:06;10.10;99.90
14682;DHT22;7429;52.498;13.480;2023-05-10T03:07:11;10.10;99.90
14682;DHT22;7429;52.498;13.480;2023-05-10T03:10:15;10.10;99.90
14682;DHT22;7429;52.498;13.480;2023-05-10T03:13:31;10.00;99.90
14682;DHT22;7429;52.498;13.480;2023-05-10T03:16:42;9.90;99.90
14682;DHT22;7429;52.498;13.480;2023-05-10T03:19:56;9.90;99.90
14682;DHT22;7429;52.498;13.480;2023-05-10T03:23:04;9.90;99.90
14682;DHT22;7429;52.498;13.480;2023-05-10T03:26:18;9.90;99.90
14682;DHT22;7429;52.498;13.480;2023-05-10T03:29:25;9.90;99.90
14682;DHT22;7429;52.498;13.480;2023-05-10T03:32:29;9.90;99.90
14682;DHT22;7429;52.498;13.480;2023-05-10T03:35:34;9.90;99.90
14682;DHT22;7429;52.498;13.480;2023-05-10T03:38:39;9.80;99.90
14682;DHT22;7429;52.498;13.480;2023-05-10T03:41:42;9.80;99.90
14682;DHT22;7429;52.498;13.480;2023-05-10T03:44:45;9.80;99.90
14682;DHT22;7429;52.498;13.480;2023-05-10T03:47:50;9.80;99.90
14682;DHT22;7429;52.498;13.480;2023-05-10T03:50:53;9.80;99.90
14682;DHT22;7429;52.498;13.480;2023-05-10T03:53:58;9.80;99.90
14682;DHT22;7429;52.498;13.480;2023-05-10T03:57:02;9.80;99.90
14682;DHT22;7429;52.498;13.480;2023-05-10T04:00:07;9.80;99.90
14682;DHT22;7429;52.498;13.480;2023-05-10T04:03:16;9.80;99.90
14682;DHT22;7429;52.498;13.480;2023-05-10T04:06:19;9.90;99.90
14682;DHT22;7429;52.498;13.480;2023-05-10T04:09:24;9.90;99.90
14682;DHT22;7429;52.498;13.480;2023-05-10T04:12:27;10.00;99.90
14682;DHT22;7429;52.498;13.480;2023-05-10T04:15:30;10.00;99.90
14682;DHT22;7429;52.498;13.480;2023-05-10T04:18:34;10.00;99.90
14682;DHT22;7429;52.498;13.480;2023-05-10T04:21:37;10.10;99.90
14682;DHT22;7429;52.498;13.480;2023-05-10T04:24:42;10.20;99.90
14682;DHT22;7429;52.498;13.480;2023-05-10T04:27:45;10.20;99.90
14682;DHT22;7429;52.498;13.480;2023-05-10T04:30:48;10.30;99.90
14682;DHT22;7429;52.498;13.480;2023-05-10T04:34:07;10.30;99.90
14682;DHT22;7429;52.498;13.480;2023-05-10T04:37:12;10.40;99.90
14682;DHT22;7429;52.498;13.480;2023-05-10T04:40:16;10.50;99.90
14682;DHT22;7429;52.498;13.480;2023-05-10T04:43:20;10.50;99.90
14682;DHT22;7429;52.498;13.480;2023-05-10T04:46:23;10.60;99.90
14682;DHT22;7429;52.498;13.480;2023-05-10T04:49:26;10.70;99.90
14682;DHT22;7429;52.498;13.480;2023-05-10T04:52:29;10.80;99.90
14682;DHT22;7429;52.498;13.480;2023-05-10T04:55:34;10.90;99.90
14682;DHT22;7429;52.498;13.480;2023-05-10T04:58:38;10.90;99.90
14682;DHT22;7429;52.498;13.480;2023-05-10T05:01:41;11.10;99.90
14682;DHT22;7429;52.498;13.480;2023-05-10T05:04:45;11.20;99.90
14682;DHT22;7429;52.498;13.480;2023-05-10T05:07:48;11.30;99.90
14682;DHT22;7429;52.498;13.480;2023-05-10T05:10:52;11.30;99.90
14682;DHT22;7429;52.498;13.480;2023-05-10T05:13:56;11.40;99.90
14682;DHT22;7429;52.498;13.480;2023-05-10T05:17:01;11.60;99.90
14682;DHT22;7429;52.498;13.480;2023-05-10T05:20:05;11.70;99.90
14682;DHT22;7429;52.498;13.480;2023-05-10T05:23:09;11.80;99.90
14682;DHT22;7429;52.498;13.480;2023-05-10T05:26:13;11.90;99.90
14682;DHT22;7429;52.498;13.480;2023-05-10T05:29:19;12.10;99.90
14682;DHT22;7429;52.498;13.480;2023-05-10T05:32:23;12.20;99.90
14682;DHT22;7429;52.498;13.480;2023-05-10T05:35:26;12.30;99.90
14682;DHT22;7429;52.498;13.480;2023-05-10T05:38:29;12.40;99.90
14682;DHT22;7429;52.498;13.480;2023-05-10T05:41:34;12.50;99.90
14682;DHT22;7429;52.498;13.480;2023-05-10T05:44:37;12.70;99.90
14682;DHT22;7429;52.498;13.480;2023-05-10T05:47:40;12.80;99.90
14682;DHT22;7429;52.498;13.480;2023-05-10T05:50:44;12.90;99.90
14682;DHT22;7429;52.498;13.480;2023-05-10T05:53:47;13.10;99.90
14682;DHT22;7429;52.498;13.480;2023-05-10T05:56:53;13.20;99.90
14682;DHT22;7429;52.498;13.480;2023-05-10T05:59:57;13.30;99.90
14682;DHT22;7429;52.498;13.480;2023-05-10T06:03:00;13.40;99.90
14682;DHT22;7429;52.498;13.480;2023-05-10T06:06:04;13.60;99.90
14682;DHT22;7429;52.498;13.480;2023-05-10T06:09:08;13.70;99.90
14682;DHT22;7429;52.498;13.480;2023-05-10T06:12:12;13.90;99.90
14682;DHT22;7429;52.498;13.480;2023-05-10T06:15:16;14.00;99.90
14682;DHT22;7429;52.498;13.480;2023-05-10T06:18:19;14.10;99.90
14682;DHT22;7429;52.498;13.480;2023-05-10T06:21:23;14.20;99.90
14682;DHT22;7429;52.498;13.480;2023-05-10T06:24:27;14.40;99.90
14682;DHT22;7429;52.498;13.480;2023-05-10T06:27:31;14.40;99.90
14682;DHT22;7429;52.498;13.480;2023-05-10T06:30:36;14.60;99.90
14682;DHT22;7429;52.498;13.480;2023-05-10T06:33:39;14.80;99.90
14682;DHT22;7429;52.498;13.480;2023-05-10T06:36:45;15.00;99.90
14682;DHT22;7429;52.498;13.480;2023-05-10T06:39:49;15.10;99.90
14682;DHT22;7429;52.498;13.480;2023-05-10T06:42:53;15.10;99.90
14682;DHT22;7429;52.498;13.480;2023-05-10T06:45:57;15.20;99.90
14682;DHT22;7429;52.498;13.480;2023-05-10T06:49:00;15.30;99.90
14682;DHT22;7429;52.498;13.480;2023-05-10T06:52:06;15.30;99.90
14682;DHT22;7429;52.498;13.480;2023-05-10T06:55:09;15.30;99.90
14682;DHT22;7429;52.498;13.480;2023-05-10T06:58:14;15.40;99.90
14682;DHT22;7429;52.498;13.480;2023-05-10T07:01:18;15.60;99.90
14682;DHT22;7429;52.498;13.480;2023-05-10T07:04:22;15.80;99.90
14682;DHT22;7429;52.498;13.480;2023-05-10T07:07:25;15.80;99.90
14682;DHT22;7429;52.498;13.480;2023-05-10T07:10:28;15.90;99.90
14682;DHT22;7429;52.498;13.480;2023-05-10T07:13:33;16.00;99.90
14682;DHT22;7429;52.498;13.480;2023-05-10T07:16:38;16.10;99.90
14682;DHT22;7429;52.498;13.480;2023-05-10T07:19:41;16.20;99.90
14682;DHT22;7429;52.498;13.480;2023-05-10T07:22:45;16.20;99.90
14682;DHT22;7429;52.498;13.480;2023-05-10T07:25:48;16.30;99.90
14682;DHT22;7429;52.498;13.480;2023-05-10T07:28:54;16.60;99.90
14682;DHT22;7429;52.498;13.480;2023-05-10T07:31:57;16.90;99.90
14682;DHT22;7429;52.498;13.480;2023-05-10T07:35:00;17.00;99.90
14682;DHT22;7429;52.498;13.480;2023-05-10T07:38:04;17.10;99.90
14682;DHT22;7429;52.498;13.480;2023-05-10T07:41:07;17.10;99.90
14682;DHT22;7429;52.498;13.480;2023-05-10T07:44:11;17.20;99.90
14682;DHT22;7429;52.498;13.480;2023-05-10T07:47:14;17.20;99.90
14682;DHT22;7429;52.498;13.480;2023-05-10T07:50:17;17.10;99.90
14682;DHT22;7429;52.498;13.480;2023-05-10T07:53:21;17.30;99.90
14682;DHT22;7429;52.498;13.480;2023-05-10T07:56:25;17.50;99.90
14682;DHT22;7429;52.498;13.480;2023-05-10T07:59:32;17.50;99.90
14682;DHT22;7429;52.498;13.480;2023-05-10T08:02:35;17.70;99.90
14682;DHT22;7429;52.498;13.480;2023-05-10T08:05:39;17.70;99.90
14682;DHT22;7429;52.498;13.480;2023-05-10T08:08:42;17.50;99.90
14682;DHT22;7429;52.498;13.480;2023-05-10T08:12:07;17.70;99.90
14682;DHT22;7429;52.498;13.480;2023-05-10T09:17:28;19.60;99.90
14682;DHT22;7429;52.498;13.480;2023-05-10T09:20:59;20.00;99.90
14682;DHT22;7429;52.498;13.480;2023-05-10T09:24:03;20.00;99.90
14682;DHT22;7429;52.498;13.480;2023-05-10T09:27:07;19.90;99.90
14682;DHT22;7429;52.498;13.480;2023-05-10T09:30:15;19.90;99.90
14682;DHT22;7429;52.498;13.480;2023-05-10T09:33:22;20.20;99.90
14682;DHT22;7429;52.498;13.480;2023-05-10T09:36:25;20.10;99.90
14682;DHT22;7429;52.498;13.480;2023-05-10T09:39:34;19.90;99.90
14682;DHT22;7429;52.498;13.480;2023-05-10T10:49:48;22.40;99.90
14682;DHT22;7429;52.498;13.480;2023-05-10T10:52:53;22.80;99.90
14682;DHT22;7429;52.498;13.480;2023-05-10T10:56:06;22.90;99.90
14682;DHT22;7429;52.498;13.480;2023-05-10T10:59:26;22.60;99.90
14682;DHT22;7429;52.498;13.480;2023-05-10T11:02:34;22.70;99.90
14682;DHT22;7429;52.498;13.480;2023-05-10T11:05:49;23.00;99.90
14682;DHT22;7429;52.498;13.480;2023-05-10T11:08:54;23.10;99.90
14682;DHT22;7429;52.498;13.480;2023-05-10T11:11:58;23.20;99.90
14682;DHT22;7429;52.498;13.480;2023-05-10T11:15:02;23.40;99.90
14682;DHT22;7429;52.498;13.480;2023-05-10T11:18:19;23.50;99.90
14682;DHT22;7429;52.498;13.480;2023-05-10T11:21:28;23.10;99.90
14682;DHT22;7429;52.498;13.480;2023-05-10T11:24:33;23.50;99.90
14682;DHT22;7429;52.498;13.480;2023-05-10T11:27:37;23.70;99.90
14682;DHT22;7429;52.498;13.480;2023-05-10T11:30:43;23.90;99.90
14682;DHT22;7429;52.498;13.480;2023-05-10T11:33:48;23.90;99.90
14682;DHT22;7429;52.498;13.480;2023-05-10T11:36:54;24.10;99.90
14682;DHT22;7429;52.498;13.480;2023-05-10T11:39:57;24.20;99.90
14682;DHT22;7429;52.498;13.480;2023-05-10T11:43:01;24.60;99.90
14682;DHT22;7429;52.498;13.480;2023-05-10T11:46:05;24.60;99.90
14682;DHT22;7429;52.498;13.480;2023-05-10T11:49:08;24.80;99.90
14682;DHT22;7429;52.498;13.480;2023-05-10T11:52:13;24.60;99.90
14682;DHT22;7429;52.498;13.480;2023-05-10T11:55:17;24.70;99.90
14682;DHT22;7429;52.498;13.480;2023-05-10T11:58:21;24.70;99.90
14682;DHT22;7429;52.498;13.480;2023-05-10T12:01:28;24.60;99.90
14682;DHT22;7429;52.498;13.480;2023-05-10T12:04:32;24.50;99.90
14682;DHT22;7429;52.498;13.480;2023-05-10T12:07:39;24.60;99.90
14682;DHT22;7429;52.498;13.480;2023-05-10T12:10:43;24.90;99.90
14682;DHT22;7429;52.498;13.480;2023-05-10T12:13:51;24.60;99.90
14682;DHT22;7429;52.498;13.480;2023-05-10T12:17:05;24.60;99.90
14682;DHT22;7429;52.498;13.480;2023-05-10T12:20:16;24.70;99.90
14682;DHT22;7429;52.498;13.480;2023-05-10T12:23:24;24.90;99.90
14682;DHT22;7429;52.498;13.480;2023-05-10T12:26:29;24.90;99.90
14682;DHT22;7429;52.498;13.480;2023-05-10T12:29:32;24.80;99.90
14682;DHT22;7429;52.498;13.480;2023-05-10T12:32:40;24.90;99.90
14682;DHT22;7429;52.498;13.480;2023-05-10T12:35:44;25.00;99.90
14682;DHT22;7429;52.498;13.480;2023-05-10T12:38:50;24.70;99.90
14682;DHT22;7429;52.498;13.480;2023-05-10T12:41:54;25.00;99.90
14682;DHT22;7429;52.498;13.480;2023-05-10T12:44:57;24.80;99.90
14682;DHT22;7429;52.498;13.480;2023-05-10T12:48:00;24.90;99.90
14682;DHT22;7429;52.498;13.480;2023-05-10T12:51:04;25.30;99.90
14682;DHT22;7429;52.498;13.480;2023-05-10T12:54:12;25.50;99.90
14682;DHT22;7429;52.498;13.480;2023-05-10T12:57:16;25.50;99.90
14682;DHT22;7429;52.498;13.480;2023-05-10T13:00:20;25.50;99.90
14682;DHT22;7429;52.498;13.480;2023-05-10T13:03:23;25.50;99.90
14682;DHT22;7429;52.498;13.480;2023-05-10T13:06:26;25.70;99.90
14682;DHT22;7429;52.498;13.480;2023-05-10T13:09:32;25.50;99.90
14682;DHT22;7429;52.498;13.480;2023-05-10T13:12:35;25.30;99.90
14682;DHT22;7429;52.498;13.480;2023-05-10T13:15:38;25.30;99.90
14682;DHT22;7429;52.498;13.480;2023-05-10T13:18:42;25.60;99.90
14682;DHT22;7429;52.498;13.480;2023-05-10T13:21:45;25.60;99.90
14682;DHT22;7429;52.498;13.480;2023-05-10T13:24:49;25.80;99.90
14682;DHT22;7429;52.498;13.480;2023-05-10T13:27:52;25.90;99.90
14682;DHT22;7429;52.498;13.480;2023-05-10T13:30:55;25.60;99.90
14682;DHT22;7429;52.498;13.480;2023-05-10T13:33:59;25.80;99.90
14682;DHT22;7429;52.498;13.480;2023-05-10T13:37:02;25.40;99.90
14682;DHT22;7429;52.498;13.480;2023-05-10T13:40:08;25.20;99.90
14682;DHT22;7429;52.498;13.480;2023-05-10T13:43:17;25.30;99.90
14682;DHT22;7429;52.498;13.480;2023-05-10T13:46:21;25.80;99.90
14682;DHT22;7429;52.498;13.480;2023-05-10T13:49:24;25.90;99.90
14682;DHT22;7429;52.498;13.480;2023-05-10T13:52:28;26.10;99.90
14682;DHT22;7429;52.498;13.480;2023-05-10T13:55:32;25.90;99.90
14682;DHT22;7429;52.498;13.480;2023-05-10T13:58:35;25.80;99.90
14682;DHT22;7429;52.498;13.480;2023-05-10T14:01:39;26.40;99.90
14682;DHT22;7429;52.498;13.480;2023-05-10T14:04:42;26.80;99.90
14682;DHT22;7429;52.498;13.480;2023-05-10T14:07:46;26.90;99.90
14682;DHT22;7429;52.498;13.480;2023-05-10T14:10:51;26.90;99.90
14682;DHT22;7429;52.498;13.480;2023-05-10T14:13:54;26.50;99.90
14682;DHT22;7429;52.498;13.480;2023-05-10T14:16:58;26.30;99.90
14682;DHT22;7429;52.498;13.480;2023-05-10T14:20:01;26.50;99.90
14682;DHT22;7429;52.498;13.480;2023-05-10T14:23:05;26.70;99.90
14682;DHT22;7429;52.498;13.480;2023-05-10T14:31:38;26.60;99.90
14682;DHT22;7429;52.498;13.480;2023-05-10T14:34:47;26.40;99.90
14682;DHT22;7429;52.498;13.480;2023-05-10T14:37:52;26.50;99.90
14682;DHT22;7429;52.498;13.480;2023-05-10T14:46:53;27.20;99.90
14682;DHT22;7429;52.498;13.480;2023-05-10T14:49:57;27.50;99.90
14682;DHT22;7429;52.498;13.480;2023-05-10T14:53:00;27.20;99.90
14682;DHT22;7429;52.498;13.480;2023-05-10T14:56:03;27.10;99.90
14682;DHT22;7429;52.498;13.480;2023-05-10T14:59:07;27.40;99.90
14682;DHT22;7429;52.498;13.480;2023-05-10T15:02:12;27.20;99.90
14682;DHT22;7429;52.498;13.480;2023-05-10T15:05:16;27.30;99.90
14682;DHT22;7429;52.498;13.480;2023-05-10T15:08:20;27.40;99.90
14682;DHT22;7429;52.498;13.480;2023-05-10T15:11:25;27.10;99.90
14682;DHT22;7429;52.498;13.480;2023-05-10T15:14:31;26.80;99.90
14682;DHT22;7429;52.498;13.480;2023-05-10T15:17:36;26.60;99.90
14682;DHT22;7429;52.498;13.480;2023-05-10T15:20:39;27.00;99.90
14682;DHT22;7429;52.498;13.480;2023-05-10T15:23:43;26.80;99.90
14682;DHT22;7429;52.498;13.480;2023-05-10T15:26:48;26.90;99.90
14682;DHT22;7429;52.498;13.480;2023-05-10T15:29:54;27.00;99.90
14682;DHT22;7429;52.498;13.480;2023-05-10T15:32:59;27.00;99.90
14682;DHT22;7429;52.498;13.480;2023-05-10T15:36:02;26.50;99.90
14682;DHT22;7429;52.498;13.480;2023-05-10T15:39:06;26.40;99.90
14682;DHT22;7429;52.498;13.480;2023-05-10T15:42:15;26.20;99.90
14682;DHT22;7429;52.498;13.480;2023-05-10T15:45:18;26.10;99.90
14682;DHT22;7429;52.498;13.480;2023-05-10T15:48:23;26.00;99.90
14682;DHT22;7429;52.498;13.480;2023-05-10T15:51:27;26.10;99.90
14682;DHT22;7429;52.498;13.480;2023-05-10T15:54:30;26.60;99.90
14682;DHT22;7429;52.498;13.480;2023-05-10T15:57:33;26.70;99.90
14682;DHT22;7429;52.498;13.480;2023-05-10T16:00:37;26.50;99.90
14682;DHT22;7429;52.498;13.480;2023-05-10T16:03:42;26.20;99.90
14682;DHT22;7429;52.498;13.480;2023-05-10T16:06:48;25.90;99.90
14682;DHT22;7429;52.498;13.480;2023-05-10T16:09:52;25.80;99.90
14682;DHT22;7429;52.498;13.480;2023-05-10T16:12:58;25.60;99.90
14682;DHT22;7429;52.498;13.480;2023-05-10T16:16:03;25.30;99.90
14682;DHT22;7429;52.498;13.480;2023-05-10T16:19:11;24.90;99.90
14682;DHT22;7429;52.498;13.480;2023-05-10T16:22:14;24.40;99.90
14682;DHT22;7429;52.498;13.480;2023-05-10T16:25:18;24.00;99.90
14682;DHT22;7429;52.498;13.480;2023-05-10T16:28:24;23.90;99.90
14682;DHT22;7429;52.498;13.480;2023-05-10T16:31:28;23.80;99.90
14682;DHT22;7429;52.498;13.480;2023-05-10T16:34:33;23.70;99.90
14682;DHT22;7429;52.498;13.480;2023-05-10T16:37:37;23.60;99.90
14682;DHT22;7429;52.498;13.480;2023-05-10T16:40:40;23.60;99.90
14682;DHT22;7429;52.498;13.480;2023-05-10T16:43:44;23.60;99.90
14682;DHT22;7429;52.498;13.480;2023-05-10T16:46:48;23.60;99.90
14682;DHT22;7429;52.498;13.480;2023-05-10T16:49:52;23.70;99.90
14682;DHT22;7429;52.498;13.480;2023-05-10T16:52:56;23.40;99.90
14682;DHT22;7429;52.498;13.480;2023-05-10T16:56:01;23.30;99.90
14682;DHT22;7429;52.498;13.480;2023-05-10T16:59:05;23.20;99.90
14682;DHT22;7429;52.498;13.480;2023-05-10T17:02:08;23.10;99.90
14682;DHT22;7429;52.498;13.480;2023-05-10T17:05:13;23.00;99.90
14682;DHT22;7429;52.498;13.480;2023-05-10T17:08:17;22.80;99.90
14682;DHT22;7429;52.498;13.480;2023-05-10T17:11:20;22.60;99.90
14682;DHT22;7429;52.498;13.480;2023-05-10T17:14:23;22.60;99.90
14682;DHT22;7429;52.498;13.480;2023-05-10T17:17:26;22.40;99.90
14682;DHT22;7429;52.498;13.480;2023-05-10T17:20:31;22.20;99.90
14682;DHT22;7429;52.498;13.480;2023-05-10T17:23:34;22.10;99.90
14682;DHT22;7429;52.498;13.480;2023-05-10T17:26:48;21.90;99.90
14682;DHT22;7429;52.498;13.480;2023-05-10T17:36:19;21.70;99.90
14682;DHT22;7429;52.498;13.480;2023-05-10T17:56:51;21.30;99.90
14682;DHT22;7429;52.498;13.480;2023-05-10T17:59:54;21.30;99.90
14682;DHT22;7429;52.498;13.480;2023-05-10T18:03:01;21.20;99.90
14682;DHT22;7429;52.498;13.480;2023-05-10T18:18:13;20.50;99.90
14682;DHT22;7429;52.498;13.480;2023-05-10T18:21:19;20.10;99.90
14682;DHT22;7429;52.498;13.480;2023-05-10T18:24:22;19.90;99.90
14682;DHT22;7429;52.498;13.480;2023-05-10T18:27:40;19.80;99.90
14682;DHT22;7429;52.498;13.480;2023-05-10T18:30:51;19.80;99.90
14682;DHT22;7429;52.498;13.480;2023-05-10T18:38:07;19.80;99.90
14682;DHT22;7429;52.498;13.480;2023-05-10T18:41:11;19.80;99.90
14682;DHT22;7429;52.498;13.480;2023-05-10T18:44:15;19.70;99.90
14682;DHT22;7429;52.498;13.480;2023-05-10T18:47:19;19.60;99.90
14682;DHT22;7429;52.498;13.480;2023-05-10T18:50:24;19.60;99.90
14682;DHT22;7429;52.498;13.480;2023-05-10T18:53:33;19.50;99.90
14682;DHT22;7429;52.498;13.480;2023-05-10T18:56:38;19.30;99.90
14682;DHT22;7429;52.498;13.480;2023-05-10T18:59:45;19.20;99.90
14682;DHT22;7429;52.498;13.480;2023-05-10T19:02:48;19.00;99.90
14682;DHT22;7429;52.498;13.480;2023-05-10T19:06:04;19.00;99.90
14682;DHT22;7429;52.498;13.480;2023-05-10T19:09:13;19.00;99.90
14682;DHT22;7429;52.498;13.480;2023-05-10T19:12:42;18.90;99.90
14682;DHT22;7429;52.498;13.480;2023-05-10T19:16:09;18.80;99.90
14682;DHT22;7429;52.498;13.480;2023-05-10T19:19:21;18.70;99.90
14682;DHT22;7429;52.498;13.480;2023-05-10T19:22:30;18.50;99.90
14682;DHT22;7429;52.498;13.480;2023-05-10T19:25:53;18.50;99.90
14682;DHT22;7429;52.498;13.480;2023-05-10T19:28:57;18.40;99.90
14682;DHT22;7429;52.498;13.480;2023-05-10T19:32:00;18.30;99.90
14682;DHT22;7429;52.498;13.480;2023-05-10T19:35:04;18.30;99.90
14682;DHT22;7429;52.498;13.480;2023-05-10T19:38:10;18.30;99.90
14682;DHT22;7429;52.498;13.480;2023-05-10T19:41:13;18.20;99.90
14682;DHT22;7429;52.498;13.480;2023-05-10T19:44:17;18.30;99.90
14682;DHT22;7429;52.498;13.480;2023-05-10T19:47:20;18.30;99.90
14682;DHT22;7429;52.498;13.480;2023-05-10T19:50:29;18.30;99.90
14682;DHT22;7429;52.498;13.480;2023-05-10T19:53:34;18.20;99.90
14682;DHT22;7429;52.498;13.480;2023-05-10T19:56:37;18.10;99.90
14682;DHT22;7429;52.498;13.480;2023-05-10T19:59:40;18.10;99.90
14682;DHT22;7429;52.498;13.480;2023-05-10T20:02:43;18.10;99.90
14682;DHT22;7429;52.498;13.480;2023-05-10T20:05:46;18.00;99.90
14682;DHT22;7429;52.498;13.480;2023-05-10T20:08:52;17.90;99.90
14682;DHT22;7429;52.498;13.480;2023-05-10T20:11:59;17.90;99.90
14682;DHT22;7429;52.498;13.480;2023-05-10T20:15:04;17.80;99.90
14682;DHT22;7429;52.498;13.480;2023-05-10T20:18:08;17.70;99.90
14682;DHT22;7429;52.498;13.480;2023-05-10T20:21:12;17.60;99.90
14682;DHT22;7429;52.498;13.480;2023-05-10T20:24:16;17.60;99.90
14682;DHT22;7429;52.498;13.480;2023-05-10T20:27:20;17.40;99.90
14682;DHT22;7429;52.498;13.480;2023-05-10T20:30:23;17.40;99.90
14682;DHT22;7429;52.498;13.480;2023-05-10T20:33:26;17.30;99.90
14682;DHT22;7429;52.498;13.480;2023-05-10T20:36:29;17.20;99.90
14682;DHT22;7429;52.498;13.480;2023-05-10T20:39:34;17.10;99.90
14682;DHT22;7429;52.498;13.480;2023-05-10T20:42:38;17.10;99.90
14682;DHT22;7429;52.498;13.480;2023-05-10T20:45:42;17.10;99.90
14682;DHT22;7429;52.498;13.480;2023-05-10T20:48:47;17.10;99.90
14682;DHT22;7429;52.498;13.480;2023-05-10T20:51:51;17.00;99.90
14682;DHT22;7429;52.498;13.480;2023-05-10T20:54:56;16.90;99.90
14682;DHT22;7429;52.498;13.480;2023-05-10T20:58:00;16.80;99.90
14682;DHT22;7429;52.498;13.480;2023-05-10T21:01:09;16.70;99.90
14682;DHT22;7429;52.498;13.480;2023-05-10T21:04:13;16.70;99.90
14682;DHT22;7429;52.498;13.480;2023-05-10T21:07:17;16.60;99.90
14682;DHT22;7429;52.498;13.480;2023-05-10T21:10:23;16.60;99.90
14682;DHT22;7429;52.498;13.480;2023-05-10T21:13:29;16.50;99.90
14682;DHT22;7429;52.498;13.480;2023-05-10T21:16:32;16.50;99.90
14682;DHT22;7429;52.498;13.480;2023-05-10T21:19:39;16.40;99.90
14682;DHT22;7429;52.498;13.480;2023-05-10T21:22:47;16.30;99.90
14682;DHT22;7429;52.498;13.480;2023-05-10T21:25:52;16.20;99.90
14682;DHT22;7429;52.498;13.480;2023-05-10T21:28:56;16.10;99.90
14682;DHT22;7429;52.498;13.480;2023-05-10T21:32:00;16.10;99.90
14682;DHT22;7429;52.498;13.480;2023-05-10T21:35:05;16.00;99.90
14682;DHT22;7429;52.498;13.480;2023-05-10T21:38:10;15.90;99.90
14682;DHT22;7429;52.498;13.480;2023-05-10T21:41:15;15.90;99.90
14682;DHT22;7429;52.498;13.480;2023-05-10T21:44:19;15.80;99.90
14682;DHT22;7429;52.498;13.480;2023-05-10T21:47:23;15.70;99.90
14682;DHT22;7429;52.498;13.480;2023-05-10T21:50:27;15.60;99.90
14682;DHT22;7429;52.498;13.480;2023-05-10T21:53:30;15.60;99.90
14682;DHT22;7429;52.498;13.480;2023-05-10T21:56:36;15.60;99.90
14682;DHT22;7429;52.498;13.480;2023-05-10T21:59:40;15.50;99.90
14682;DHT22;7429;52.498;13.480;2023-05-10T22:02:44;15.40;99.90
14682;DHT22;7429;52.498;13.480;2023-05-10T22:05:48;15.40;99.90
14682;DHT22;7429;52.498;13.480;2023-05-10T22:08:52;15.30;99.90
14682;DHT22;7429;52.498;13.480;2023-05-10T22:11:57;15.30;99.90
14682;DHT22;7429;52.498;13.480;2023-05-10T22:15:00;15.20;99.90
14682;DHT22;7429;52.498;13.480;2023-05-10T22:18:07;15.10;99.90
14682;DHT22;7429;52.498;13.480;2023-05-10T22:21:10;15.10;99.90
14682;DHT22;7429;52.498;13.480;2023-05-10T22:24:13;15.00;99.90
14682;DHT22;7429;52.498;13.480;2023-05-10T22:27:17;15.00;99.90
14682;DHT22;7429;52.498;13.480;2023-05-10T22:30:21;15.00;99.90
14682;DHT22;7429;52.498;13.480;2023-05-10T22:33:24;14.90;99.90
14682;DHT22;7429;52.498;13.480;2023-05-10T22:36:29;14.90;99.90